createdAt,value
2022-11-05T00:01:10.572Z,24.70
2022-11-05T00:08:30.358Z,12.10
2022-11-05T00:15:50.817Z,6.83
2022-11-05T00:23:20.917Z,6.00
2022-11-05T00:30:23.741Z,5.55
2022-11-05T00:37:27.566Z,5.15
2022-11-05T00:44:47.916Z,4.68
2022-11-05T00:52:09.475Z,4.40
2022-11-05T00:59:11.039Z,4.60
2022-11-05T01:06:14.103Z,4.65
2022-11-05T01:13:20.692Z,4.47
2022-11-05T01:20:22.452Z,4.53
2022-11-05T01:27:24.031Z,4.38
2022-11-05T01:34:25.617Z,4.60
2022-11-05T01:41:27.201Z,4.45
2022-11-05T01:48:32.176Z,4.97
2022-11-05T01:55:35.469Z,4.78
2022-11-05T02:02:37.121Z,4.88
2022-11-05T02:09:56.925Z,4.80
2022-11-05T02:17:03.001Z,4.50
2022-11-05T02:24:15.035Z,4.35
2022-11-05T02:31:47.968Z,4.55
2022-11-05T02:39:23.402Z,4.57
2022-11-05T02:46:36.630Z,4.50
2022-11-05T02:54:00.118Z,5.13
2022-11-05T03:01:06.646Z,5.32
2022-11-05T03:08:13.211Z,5.47
2022-11-05T03:15:39.324Z,5.13
2022-11-05T03:23:05.330Z,4.88
2022-11-05T03:30:08.957Z,5.00
2022-11-05T03:37:10.501Z,4.75
2022-11-05T03:44:12.831Z,5.18
2022-11-05T03:51:17.590Z,4.80
2022-11-05T03:58:20.386Z,5.07
2022-11-05T04:05:21.958Z,4.40
2022-11-05T04:12:41.883Z,5.65
2022-11-05T04:20:02.342Z,5.50
2022-11-05T04:27:04.648Z,4.97
2022-11-05T04:34:06.232Z,5.00
2022-11-05T04:41:12.966Z,4.90
2022-11-05T04:48:14.581Z,5.57
2022-11-05T04:55:16.263Z,5.50
2022-11-05T05:02:17.924Z,5.20
2022-11-05T05:09:19.521Z,5.10
2022-11-05T05:16:25.353Z,4.80
2022-11-05T05:23:26.897Z,4.22
2022-11-05T05:30:28.446Z,5.35
2022-11-05T05:37:30.007Z,4.80
2022-11-05T05:44:31.576Z,5.22
2022-11-05T05:51:33.129Z,5.13
2022-11-05T05:58:39.038Z,5.15
2022-11-05T06:05:40.669Z,5.38
2022-11-05T06:12:42.237Z,5.20
2022-11-05T06:19:43.941Z,5.18
2022-11-05T06:26:45.506Z,5.30
2022-11-05T06:33:47.308Z,5.05
2022-11-05T06:40:48.848Z,4.55
2022-11-05T06:47:55.908Z,4.57
2022-11-05T06:54:57.464Z,3.90
2022-11-05T07:01:59.046Z,4.55
2022-11-05T07:09:00.660Z,4.38
2022-11-05T07:16:02.211Z,4.18
2022-11-05T07:23:06.561Z,5.05
2022-11-05T07:30:08.965Z,4.55
2022-11-05T07:37:10.520Z,5.75
2022-11-05T07:44:12.464Z,4.55
2022-11-05T07:51:14.060Z,5.03
2022-11-05T07:58:15.701Z,4.78
2022-11-05T08:05:17.363Z,4.32
2022-11-05T08:12:18.992Z,4.80
2022-11-05T08:19:20.627Z,4.18
2022-11-05T08:26:22.179Z,4.10
2022-11-05T08:33:24.185Z,4.35
2022-11-05T08:40:26.381Z,4.75
2022-11-05T08:47:27.940Z,4.03
2022-11-05T08:54:29.554Z,3.30
2022-11-05T09:01:32.283Z,4.38
2022-11-05T09:08:33.954Z,4.25
2022-11-05T09:15:35.715Z,4.63
2022-11-05T09:22:42.175Z,4.38
2022-11-05T09:29:44.940Z,4.10
2022-11-05T09:36:46.483Z,3.30
2022-11-05T09:43:55.862Z,3.75
2022-11-05T09:50:58.189Z,3.85
2022-11-05T09:58:01.560Z,3.55
2022-11-05T10:05:09.736Z,3.17
2022-11-05T10:12:14.883Z,3.63
2022-11-05T10:19:23.830Z,2.90
2022-11-05T10:26:27.092Z,3.28
2022-11-05T10:33:35.258Z,2.95
2022-11-05T10:40:49.817Z,2.70
2022-11-05T10:48:15.709Z,2.60
2022-11-05T10:55:35.192Z,2.40
2022-11-05T11:02:36.828Z,2.67
2022-11-05T11:09:38.425Z,2.70
2022-11-05T11:16:44.579Z,2.55
2022-11-05T11:24:06.875Z,2.53
2022-11-05T11:31:16.350Z,2.20
2022-11-05T11:38:17.993Z,2.38
2022-11-05T11:45:33.302Z,2.60
2022-11-05T11:52:36.465Z,2.05
2022-11-05T12:00:07.277Z,2.30
2022-11-05T12:07:30.092Z,3.08
2022-11-05T12:14:46.051Z,2.00
2022-11-05T12:22:06.171Z,2.67
2022-11-05T12:29:35.777Z,2.43
2022-11-05T12:36:53.853Z,2.00
2022-11-05T12:44:18.802Z,1.85
2022-11-05T12:51:27.457Z,2.20
2022-11-05T12:58:31.598Z,1.92
2022-11-05T13:05:36.207Z,1.83
2022-11-05T13:12:39.066Z,1.60
2022-11-05T13:19:48.774Z,2.35
2022-11-05T13:27:04.630Z,2.20
2022-11-05T13:34:11.129Z,2.58
2022-11-05T13:41:30.847Z,2.47
2022-11-05T13:48:46.458Z,1.80
2022-11-05T13:56:09.919Z,2.22
2022-11-05T14:03:19.997Z,2.38
2022-11-05T14:10:37.726Z,2.45
2022-11-05T14:18:02.170Z,2.33
2022-11-05T14:25:30.097Z,2.35
2022-11-05T14:32:45.619Z,2.65
2022-11-05T14:39:47.847Z,2.38
2022-11-05T14:46:50.723Z,2.03
2022-11-05T14:54:04.057Z,2.00
2022-11-05T15:01:07.583Z,2.10
2022-11-05T15:08:32.442Z,2.35
2022-11-05T15:15:44.514Z,2.05
2022-11-05T15:22:51.746Z,2.33
2022-11-05T15:29:53.473Z,2.50
2022-11-05T15:36:56.949Z,2.00
2022-11-05T15:43:58.518Z,2.47
2022-11-05T15:51:00.087Z,4.57
2022-11-05T15:58:06.293Z,3.03
2022-11-05T16:05:11.538Z,3.40
2022-11-05T16:12:19.380Z,2.65
2022-11-05T16:19:47.202Z,2.47
2022-11-05T16:27:02.904Z,3.13
2022-11-05T16:34:04.946Z,3.63
2022-11-05T16:41:06.562Z,5.32
2022-11-05T16:48:12.371Z,3.60
2022-11-05T16:55:14.517Z,4.28
2022-11-05T17:02:16.305Z,5.57
2022-11-05T17:09:18.081Z,4.10
2022-11-05T17:16:19.662Z,4.50
2022-11-05T17:23:22.552Z,5.35
2022-11-05T17:30:24.488Z,5.07
2022-11-05T17:37:26.059Z,5.13
2022-11-05T17:44:27.629Z,3.90
2022-11-05T17:51:29.208Z,4.35
2022-11-05T17:58:30.831Z,3.88
2022-11-05T18:05:33.812Z,7.13
2022-11-05T18:12:35.645Z,3.28
2022-11-05T18:19:40.174Z,10.23
2022-11-05T18:26:42.229Z,4.20
2022-11-05T18:33:43.825Z,3.40
2022-11-05T18:40:45.410Z,5.82
2022-11-05T18:47:46.987Z,3.70
2022-11-05T18:54:48.570Z,5.80
2022-11-05T19:01:50.355Z,6.05
2022-11-05T19:08:52.056Z,5.53
2022-11-05T19:15:53.656Z,7.97
2022-11-05T19:22:55.266Z,6.78
2022-11-05T19:29:56.929Z,5.50
2022-11-05T19:36:58.534Z,7.15
2022-11-05T19:44:01.691Z,6.28
2022-11-05T19:51:07.958Z,7.25
2022-11-05T19:58:09.852Z,6.80
2022-11-05T20:05:12.684Z,7.13
2022-11-05T20:12:14.381Z,6.60
2022-11-05T20:19:17.547Z,6.32
2022-11-05T20:26:19.126Z,9.98
2022-11-05T20:33:20.822Z,7.43
2022-11-05T20:40:22.389Z,6.90
2022-11-05T20:47:23.959Z,8.13
2022-11-05T20:54:25.622Z,7.47
2022-11-05T21:01:29.238Z,6.90
2022-11-05T21:08:31.642Z,6.00
2022-11-05T21:15:33.164Z,20.10
2022-11-05T21:22:34.723Z,7.70
2022-11-05T21:29:37.088Z,6.25
2022-11-05T21:36:39.440Z,6.50
2022-11-05T21:43:42.283Z,6.10
2022-11-05T21:51:02.457Z,6.03
2022-11-05T21:58:32.938Z,6.25
2022-11-05T22:05:34.577Z,6.32
2022-11-05T22:12:36.132Z,6.65
2022-11-05T22:19:37.732Z,5.03
2022-11-05T22:26:39.472Z,5.95
2022-11-05T22:33:41.138Z,5.40
2022-11-05T22:40:42.723Z,6.82
2022-11-05T22:47:44.333Z,4.97
2022-11-05T22:54:47.621Z,4.78
2022-11-05T23:01:49.397Z,4.78
2022-11-05T23:09:09.585Z,4.97
2022-11-05T23:16:29.970Z,4.17
2022-11-05T23:23:50.414Z,4.22
2022-11-05T23:31:10.558Z,4.50
2022-11-05T23:38:30.978Z,3.73
2022-11-05T23:45:47.852Z,3.55
2022-11-05T23:52:49.433Z,4.80
2022-11-05T23:59:50.974Z,3.95
